Time;durP1;ratioP1;P1;durP2;ratioP2;P2;SDS_P1;SDS_P2;PMS_P1;PMS_P2;Temp;Humidity;BMP_temperature;BMP_pressure;BME280_temperature;BME280_humidity;BME280_pressure;Samples;Min_cycle;Max_cycle;Signal;HPM_P1;HPM_P2
2021/10/09 00:01:08;;;;;;;1.13;1.05;;;22.50;68.70;;;;;;5124664;28;20036;-35
2021/10/09 00:03:34;;;;;;;1.20;1.10;;;22.50;68.80;;;;;;5124516;28;20031;-35
2021/10/09 00:06:01;;;;;;;1.20;1.10;;;22.50;68.80;;;;;;5124612;28;20049;-35
2021/10/09 00:08:27;;;;;;;1.20;1.10;;;22.50;68.90;;;;;;5124663;28;20114;-35
2021/10/09 00:10:53;;;;;;;1.05;0.95;;;22.50;69.00;;;;;;5124587;28;20047;-35
2021/10/09 00:13:20;;;;;;;0.85;0.85;;;22.50;69.10;;;;;;5124412;28;20028;-35
2021/10/09 00:15:46;;;;;;;1.48;1.38;;;22.50;69.30;;;;;;5124390;28;20019;-35
2021/10/09 00:18:12;;;;;;;2.53;1.25;;;22.50;69.40;;;;;;5124084;28;20090;-35
2021/10/09 00:20:38;;;;;;;1.20;1.10;;;22.50;69.40;;;;;;5124304;28;20036;-35
2021/10/09 00:23:04;;;;;;;1.27;1.17;;;22.60;69.60;;;;;;5124369;27;20024;-35
2021/10/09 00:25:31;;;;;;;1.35;1.25;;;22.60;70.50;;;;;;5123872;28;20023;-35
2021/10/09 00:27:57;;;;;;;2.40;1.20;;;22.60;69.80;;;;;;5124056;28;20023;-35
2021/10/09 00:30:23;;;;;;;0.93;0.93;;;22.60;69.80;;;;;;5104568;27;20044;-35
2021/10/09 00:32:49;;;;;;;1.33;1.23;;;22.60;69.80;;;;;;5123995;28;20494;-35
2021/10/09 00:35:15;;;;;;;1.20;1.08;;;22.60;69.80;;;;;;5105309;28;20019;-35
2021/10/09 00:37:41;;;;;;;1.42;1.23;;;22.60;69.80;;;;;;5124072;28;20876;-35
2021/10/09 00:40:08;;;;;;;1.13;1.05;;;22.60;69.90;;;;;;5123835;28;20032;-35
2021/10/09 00:42:34;;;;;;;1.27;1.17;;;22.60;69.90;;;;;;5123900;28;20036;-35
2021/10/09 00:45:00;;;;;;;1.55;1.20;;;22.60;69.90;;;;;;5123611;28;20050;-35
2021/10/09 00:47:26;;;;;;;1.95;1.10;;;22.60;70.00;;;;;;5123779;28;20019;-35
2021/10/09 00:49:52;;;;;;;2.45;1.50;;;22.60;70.00;;;;;;5123274;28;20051;-35
2021/10/09 00:52:19;;;;;;;1.38;1.27;;;22.60;70.00;;;;;;5123111;28;20032;-35
2021/10/09 00:54:46;;;;;;;2.17;1.58;;;22.60;70.10;;;;;;5123717;28;20028;-35
2021/10/09 00:57:13;;;;;;;2.13;1.60;;;22.60;70.30;;;;;;5105149;28;20018;-35
2021/10/09 00:59:40;;;;;;;1.35;1.17;;;22.70;71.10;;;;;;5123313;28;20044;-35
2021/10/09 01:02:06;;;;;;;1.05;1.00;;;22.70;70.40;;;;;;5105323;28;20068;-35
2021/10/09 01:04:33;;;;;;;1.35;1.17;;;22.70;70.50;;;;;;5122865;28;20385;-35
2021/10/09 01:07:00;;;;;;;1.40;1.30;;;22.70;70.50;;;;;;5123189;28;20052;-35
2021/10/09 01:09:26;;;;;;;;;;;22.70;70.60;;;;;;5123654;28;20039;-35
2021/10/09 01:11:52;;;;;;;1.20;1.10;;;22.70;70.60;;;;;;5123242;28;19914;-35
2021/10/09 01:14:18;;;;;;;1.45;1.20;;;22.70;70.50;;;;;;5123215;28;20051;-35
2021/10/09 01:16:46;;;;;;;2.05;1.30;;;22.70;70.60;;;;;;5123092;28;20559;-35
2021/10/09 01:19:12;;;;;;;1.38;1.17;;;22.70;70.60;;;;;;5122880;28;20027;-35
2021/10/09 01:21:46;;;;;;;2.72;1.20;;;22.70;70.60;;;;;;5116650;28;20039;-35
2021/10/09 01:24:13;;;;;;;1.60;1.50;;;22.70;70.70;;;;;;5084301;28;20481;-35
2021/10/09 01:26:39;;;;;;;2.07;1.20;;;22.70;70.80;;;;;;5102506;28;20036;-35
2021/10/09 01:29:06;;;;;;;1.50;1.08;;;22.70;70.80;;;;;;5102448;28;20348;-35
2021/10/09 01:31:32;;;;;;;;;;;22.70;70.80;;;;;;5103028;28;20032;-35
2021/10/09 01:33:58;;;;;;;1.50;1.40;;;22.70;70.90;;;;;;5102424;28;19961;-35
2021/10/09 01:36:32;;;;;;;2.30;1.30;;;22.70;70.90;;;;;;5102286;28;20107;-35
2021/10/09 01:38:58;;;;;;;2.40;1.30;;;22.70;71.00;;;;;;5102557;28;20028;-35
2021/10/09 01:41:24;;;;;;;2.25;1.52;;;22.70;71.00;;;;;;5084167;28;20160;-35
2021/10/09 01:43:51;;;;;;;1.70;1.48;;;22.70;71.00;;;;;;5102345;28;20031;-35
2021/10/09 01:46:17;;;;;;;2.67;1.42;;;22.70;71.10;;;;;;5108319;28;20589;-35
2021/10/09 01:48:43;;;;;;;1.48;1.38;;;22.70;71.10;;;;;;5122197;28;20074;-35
2021/10/09 01:51:12;;;;;;;1.50;1.30;;;22.70;71.10;;;;;;5122444;28;20078;-35
2021/10/09 01:53:40;;;;;;;1.30;1.20;;;22.70;71.10;;;;;;5122725;28;20062;-35
2021/10/09 01:56:06;;;;;;;1.75;1.65;;;22.70;71.10;;;;;;5104186;28;20059;-35
2021/10/09 01:58:34;;;;;;;1.77;1.58;;;22.70;71.10;;;;;;5122779;28;20016;-36
2021/10/09 02:01:00;;;;;;;1.80;1.70;;;22.70;71.90;;;;;;5122538;28;20020;-35
2021/10/09 02:03:26;;;;;;;3.08;1.58;;;22.70;71.30;;;;;;5122404;28;20028;-35
2021/10/09 02:05:52;;;;;;;1.83;1.58;;;22.70;71.30;;;;;;5122520;28;20024;-35
2021/10/09 02:08:18;;;;;;;2.35;1.35;;;22.70;71.30;;;;;;5122645;28;20035;-35
2021/10/09 02:10:54;;;;;;;1.67;1.58;;;22.70;71.30;;;;;;5122631;28;20038;-35
2021/10/09 02:13:37;;;;;;;3.10;1.60;;;22.70;71.40;;;;;;5122654;28;20384;-35
2021/10/09 02:16:24;;;;;;;3.65;1.98;;;22.70;71.50;;;;;;5122490;28;20091;-35
2021/10/09 02:19:08;;;;;;;2.00;1.60;;;22.70;71.50;;;;;;5122146;28;20087;-35
2021/10/09 02:24:32;;;;;;;1.70;1.60;;;22.70;71.40;;;;;;5122313;28;20540;-35
2021/10/09 02:26:58;;;;;;;4.00;1.73;;;22.70;71.30;;;;;;5122133;28;20130;-35
2021/10/09 02:29:24;;;;;;;1.48;1.38;;;22.70;71.30;;;;;;5122246;28;20028;-35
2021/10/09 02:31:55;;;;;;;1.67;1.52;;;22.70;71.30;;;;;;5122447;28;20034;-35
2021/10/09 02:34:21;;;;;;;1.90;1.73;;;22.70;71.30;;;;;;5122165;28;20083;-35
2021/10/09 02:36:47;;;;;;;1.80;1.67;;;22.70;71.40;;;;;;5122140;28;20047;-35
2021/10/09 02:39:13;;;;;;;2.53;1.73;;;22.70;71.40;;;;;;5122283;28;20466;-35
2021/10/09 02:41:39;;;;;;;2.13;1.90;;;22.70;71.50;;;;;;5122152;28;20027;-35
2021/10/09 02:44:06;;;;;;;2.15;1.70;;;22.70;71.70;;;;;;5122391;28;20650;-35
2021/10/09 02:46:32;;;;;;;1.48;1.38;;;22.70;71.60;;;;;;5121324;28;20049;-35
2021/10/09 02:48:59;;;;;;;2.83;1.80;;;22.70;71.50;;;;;;5121573;28;20056;-35
2021/10/09 02:51:25;;;;;;;2.75;1.60;;;22.70;71.50;;;;;;5121815;28;20039;-35
2021/10/09 02:53:51;;;;;;;4.07;1.92;;;22.70;71.40;;;;;;5110086;28;20036;-35
2021/10/09 02:56:17;;;;;;;2.10;2.00;;;22.70;71.60;;;;;;5125717;28;20032;-35
2021/10/09 02:58:43;;;;;;;2.20;2.00;;;22.70;71.70;;;;;;5125389;28;20114;-35
2021/10/09 03:01:09;;;;;;;2.55;1.52;;;22.70;71.60;;;;;;5125738;28;20019;-35
2021/10/09 03:03:35;;;;;;;2.90;1.70;;;22.70;71.60;;;;;;5125869;28;20043;-35
2021/10/09 03:06:01;;;;;;;1.95;1.77;;;22.70;71.60;;;;;;5125639;28;20046;-35
2021/10/09 03:08:28;;;;;;;2.58;1.88;;;22.70;71.60;;;;;;5125428;28;20100;-35
2021/10/09 03:10:54;;;;;;;4.30;1.77;;;22.60;71.70;;;;;;5125080;28;20031;-35
2021/10/09 03:13:20;;;;;;;1.77;1.63;;;22.70;71.40;;;;;;5107232;28;20023;-35
2021/10/09 03:15:46;;;;;;;3.45;2.00;;;22.60;71.50;;;;;;5125284;28;20035;-35
2021/10/09 03:18:12;;;;;;;2.50;1.85;;;22.60;71.40;;;;;;5125151;28;20073;-35
2021/10/09 03:20:38;;;;;;;3.22;1.98;;;22.60;71.40;;;;;;5125516;28;20556;-35
2021/10/09 03:23:04;;;;;;;1.80;1.70;;;22.60;71.30;;;;;;5125198;28;20031;-35
2021/10/09 03:25:31;;;;;;;2.13;1.92;;;22.60;71.20;;;;;;5125450;28;20062;-35
2021/10/09 03:27:57;;;;;;;2.50;2.00;;;22.70;71.10;;;;;;5125260;28;20057;-35
2021/10/09 03:30:23;;;;;;;2.03;1.83;;;22.60;71.20;;;;;;5125268;28;20659;-35
2021/10/09 03:32:49;;;;;;;2.25;2.00;;;22.60;71.10;;;;;;5125036;27;20035;-35
2021/10/09 03:35:15;;;;;;;2.38;1.70;;;22.60;71.20;;;;;;5125075;28;20036;-35
2021/10/09 03:37:42;;;;;;;2.17;1.83;;;22.60;71.30;;;;;;5124707;28;20057;-35
2021/10/09 03:40:11;;;;;;;2.10;1.90;;;22.60;71.30;;;;;;5125034;28;20225;-35
2021/10/09 03:42:47;;;;;;;2.45;2.05;;;22.60;71.40;;;;;;5125094;28;20035;-35
2021/10/09 03:45:20;;;;;;;1.70;1.60;;;22.60;71.30;;;;;;5125000;28;20031;-35
2021/10/09 03:47:58;;;;;;;1.90;1.80;;;22.60;71.40;;;;;;5124689;28;20032;-36
2021/10/09 03:52:23;;;;;;;2.75;1.90;;;22.60;71.20;;;;;;5124614;28;20047;-35
2021/10/09 03:53:19;;;;;;;1.85;1.75;;;22.60;71.30;;;;;;5124545;28;20082;-35
2021/10/09 03:55:45;;;;;;;1.85;1.73;;;22.50;71.20;;;;;;5124895;28;20028;-35
2021/10/09 03:58:11;;;;;;;2.78;1.90;;;22.50;71.10;;;;;;5124655;28;20024;-35
2021/10/09 04:00:37;;;;;;;1.58;1.48;;;22.50;71.00;;;;;;5124655;28;20028;-35
2021/10/09 04:03:03;;;;;;;2.28;1.88;;;22.50;71.00;;;;;;5124653;28;20020;-35
2021/10/09 04:05:30;;;;;;;2.22;1.75;;;22.50;71.00;;;;;;5124289;28;20023;-35
2021/10/09 04:07:56;;;;;;;1.80;1.55;;;22.50;71.10;;;;;;5124385;28;20118;-35
2021/10/09 04:10:22;;;;;;;2.83;1.90;;;22.50;71.00;;;;;;5124004;28;20575;-35
2021/10/09 04:12:48;;;;;;;3.17;1.77;;;22.50;71.00;;;;;;5124275;28;20027;-35
2021/10/09 04:15:14;;;;;;;2.40;1.80;;;22.50;71.10;;;;;;5124431;28;20050;-35
2021/10/09 04:17:40;;;;;;;1.80;1.70;;;22.50;71.00;;;;;;5124518;28;20108;-35
2021/10/09 04:20:07;;;;;;;1.92;1.83;;;22.50;71.10;;;;;;5123967;28;20062;-35
2021/10/09 04:22:33;;;;;;;1.92;1.67;;;22.50;71.10;;;;;;5111838;28;20024;-35
2021/10/09 04:24:59;;;;;;;4.68;1.75;;;22.50;71.10;;;;;;5103526;28;20074;-35
2021/10/09 04:27:25;;;;;;;3.63;2.10;;;22.50;71.10;;;;;;5103933;28;20024;-35
2021/10/09 04:29:51;;;;;;;2.15;1.52;;;22.50;71.60;;;;;;5103173;28;20039;-35
2021/10/09 04:32:18;;;;;;;4.00;2.00;;;22.40;71.10;;;;;;5103673;28;20020;-35
2021/10/09 04:34:44;;;;;;;1.90;1.70;;;22.40;71.20;;;;;;5103516;28;20039;-35
2021/10/09 04:37:10;;;;;;;3.95;1.92;;;22.40;71.20;;;;;;5103657;28;20028;-35
2021/10/09 04:39:36;;;;;;;3.15;1.70;;;22.40;71.20;;;;;;5106372;28;20035;-36
2021/10/09 04:42:02;;;;;;;1.92;1.73;;;22.40;71.10;;;;;;5123973;28;20028;-35
2021/10/09 04:44:29;;;;;;;1.95;1.80;;;22.40;71.10;;;;;;5123862;28;20027;-35
2021/10/09 04:46:55;;;;;;;2.05;1.58;;;22.40;71.20;;;;;;5123634;28;20526;-35
2021/10/09 04:49:21;;;;;;;2.53;1.67;;;22.40;71.20;;;;;;5123379;28;20043;-35
2021/10/09 04:51:48;;;;;;;2.28;1.70;;;22.40;71.30;;;;;;5123624;28;20031;-35
2021/10/09 04:54:14;;;;;;;1.80;1.30;;;22.40;71.20;;;;;;5123750;28;20039;-35
2021/10/09 04:56:40;;;;;;;2.67;1.80;;;22.40;71.20;;;;;;5123493;28;20042;-35
2021/10/09 04:59:06;;;;;;;1.73;1.50;;;22.40;71.20;;;;;;5122449;28;20073;-35
2021/10/09 05:01:33;;;;;;;2.03;1.83;;;22.40;71.20;;;;;;5122814;28;20019;-35
2021/10/09 05:03:59;;;;;;;1.50;1.40;;;22.40;71.30;;;;;;5123457;27;20096;-35
2021/10/09 05:06:25;;;;;;;2.28;1.75;;;22.30;71.20;;;;;;5123198;28;20024;-35
2021/10/09 05:08:51;;;;;;;2.75;1.60;;;22.30;71.30;;;;;;5123126;28;20043;-35
2021/10/09 05:11:18;;;;;;;2.13;1.90;;;22.30;71.40;;;;;;5123241;28;20601;-35
2021/10/09 05:13:44;;;;;;;;;;;22.30;71.30;;;;;;5123900;28;20065;-35
2021/10/09 05:16:10;;;;;;;1.85;1.75;;;22.30;71.30;;;;;;5122880;28;19907;-35
2021/10/09 05:18:36;;;;;;;1.55;1.45;;;22.30;71.30;;;;;;5123163;28;20019;-35
2021/10/09 05:21:02;;;;;;;2.35;1.80;;;22.30;71.40;;;;;;5140553;27;20027;-35
2021/10/09 05:23:31;;;;;;;1.70;1.60;;;22.30;71.40;;;;;;5123496;27;20036;-35
2021/10/09 05:25:58;;;;;;;1.90;1.60;;;22.30;71.40;;;;;;5122580;28;20028;-35
2021/10/09 05:28:30;;;;;;;2.40;1.60;;;22.30;71.40;;;;;;5123245;28;20115;-35
2021/10/09 05:30:58;;;;;;;2.67;1.75;;;22.30;71.50;;;;;;5122795;28;20048;-36
2021/10/09 05:35:57;;;;;;;2.05;1.85;;;22.20;71.40;;;;;;5123172;28;20023;-35
2021/10/09 05:38:23;;;;;;;2.70;1.83;;;22.30;71.40;;;;;;5123039;28;20102;-35
2021/10/09 05:40:49;;;;;;;1.95;1.60;;;22.20;71.40;;;;;;5108873;28;20032;-35
2021/10/09 05:43:16;;;;;;;1.98;1.58;;;22.20;71.40;;;;;;5102478;28;20024;-36
2021/10/09 05:45:42;;;;;;;2.17;1.35;;;22.20;71.50;;;;;;5101380;28;20028;-35
2021/10/09 05:48:09;;;;;;;1.85;1.70;;;22.20;71.50;;;;;;5102452;28;20044;-35
2021/10/09 05:56:41;;;;;;;3.15;1.73;;;22.20;71.50;;;;;;5122683;27;20042;-35
2021/10/09 05:58:51;;;;;;;2.13;1.65;;;22.20;71.50;;;;;;5108081;28;20027;-35
2021/10/09 06:01:36;;;;;;;1.60;1.50;;;22.20;71.60;;;;;;5112198;28;20036;-37
2021/10/09 06:30:59;;;;;;;1.65;1.55;;;22.10;71.70;;;;;;5122836;27;20104;-35
2021/10/09 06:45:18;;;;;;;1.60;1.50;;;22.00;71.80;;;;;;5126372;28;20038;-35
2021/10/09 06:48:09;;;;;;;1.55;1.40;;;22.00;71.80;;;;;;5126300;28;20121;-35
2021/10/09 06:59:31;;;;;;;2.30;1.30;;;22.00;71.90;;;;;;5060222;28;20063;-36
2021/10/09 07:01:57;;;;;;;1.35;1.25;;;22.00;71.90;;;;;;5062345;28;20037;-35
2021/10/09 07:04:24;;;;;;;2.58;1.30;;;22.00;72.00;;;;;;5062666;28;20036;-35
2021/10/09 07:06:52;;;;;;;1.98;1.48;;;22.00;72.00;;;;;;5062296;28;20029;-35
2021/10/09 07:09:18;;;;;;;1.50;1.40;;;22.00;72.10;;;;;;5061547;28;20044;-35
2021/10/09 07:11:44;;;;;;;2.72;1.50;;;22.00;72.10;;;;;;5042068;28;20029;-35
2021/10/09 07:14:10;;;;;;;1.38;1.27;;;22.00;72.10;;;;;;5042527;28;20044;-35
2021/10/09 07:16:36;;;;;;;1.23;1.13;;;22.00;72.10;;;;;;5057246;28;20080;-35
2021/10/09 07:19:02;;;;;;;1.90;1.40;;;22.00;72.10;;;;;;5062280;28;20029;-35
2021/10/09 07:21:29;;;;;;;1.80;1.38;;;22.00;72.20;;;;;;5058779;28;20060;-35
2021/10/09 07:23:55;;;;;;;1.33;1.23;;;22.00;72.10;;;;;;5042110;28;20145;-35
2021/10/09 07:26:21;;;;;;;1.40;1.20;;;22.00;72.10;;;;;;5054883;28;20112;-36
2021/10/09 07:28:47;;;;;;;1.40;1.30;;;21.90;72.10;;;;;;5125549;28;20027;-37
2021/10/09 07:31:13;;;;;;;2.08;1.20;;;21.90;72.10;;;;;;5125381;28;20035;-35
2021/10/09 07:33:39;;;;;;;1.80;1.23;;;21.90;72.20;;;;;;5125272;28;20020;-35
2021/10/09 07:36:05;;;;;;;1.13;1.00;;;21.90;72.20;;;;;;5125486;28;20039;-35
2021/10/09 07:38:31;;;;;;;1.45;1.35;;;21.90;72.20;;;;;;5124788;28;20102;-35
2021/10/09 07:40:58;;;;;;;2.45;1.10;;;21.90;72.20;;;;;;5110165;28;20063;-35
2021/10/09 07:43:24;;;;;;;1.70;1.35;;;21.90;72.20;;;;;;5104701;28;20102;-35
2021/10/09 07:45:50;;;;;;;1.70;1.25;;;21.90;72.30;;;;;;5104772;28;20050;-35
2021/10/09 07:48:16;;;;;;;1.25;1.10;;;21.90;72.30;;;;;;5104527;28;20040;-35
2021/10/09 07:50:42;;;;;;;1.67;1.45;;;21.90;72.30;;;;;;5104373;28;20119;-35
2021/10/09 07:53:09;;;;;;;1.25;1.15;;;21.90;72.30;;;;;;5121952;28;20523;-35
2021/10/09 07:55:35;;;;;;;1.00;0.90;;;21.90;72.30;;;;;;5106584;28;20027;-36
2021/10/09 07:58:01;;;;;;;1.20;1.10;;;21.90;72.30;;;;;;5124967;28;20086;-35
2021/10/09 08:00:27;;;;;;;1.38;0.93;;;21.90;72.30;;;;;;5124948;28;20587;-35
2021/10/09 08:02:54;;;;;;;1.95;1.30;;;21.90;72.40;;;;;;5124641;28;20050;-35
2021/10/09 08:05:23;;;;;;;2.20;1.15;;;21.90;72.30;;;;;;5124838;28;20035;-35
2021/10/09 08:07:49;;;;;;;1.80;1.30;;;21.90;72.30;;;;;;5124614;28;20031;-35
2021/10/09 08:10:15;;;;;;;1.58;1.13;;;21.90;72.40;;;;;;5124333;28;20047;-35
2021/10/09 08:12:41;;;;;;;0.95;0.90;;;21.90;72.40;;;;;;5124534;28;20020;-35
2021/10/09 08:15:09;;;;;;;1.27;1.00;;;21.90;72.40;;;;;;5124777;28;20085;-36
2021/10/09 08:17:36;;;;;;;1.10;1.00;;;21.90;72.50;;;;;;5124539;28;20047;-35
2021/10/09 08:20:04;;;;;;;1.52;1.30;;;21.90;72.50;;;;;;5124698;28;20057;-35
2021/10/09 08:22:33;;;;;;;3.20;1.35;;;21.90;72.50;;;;;;5124047;28;20038;-35
2021/10/09 08:25:29;;;;;;;1.80;1.10;;;21.90;72.50;;;;;;5124376;28;20040;-35
2021/10/09 08:38:51;;;;;;;1.20;1.10;;;21.90;72.70;;;;;;5124140;28;20042;-35
2021/10/09 08:41:17;;;;;;;1.38;1.00;;;21.80;72.60;;;;;;5123812;28;20031;-35
2021/10/09 08:43:44;;;;;;;1.00;0.90;;;21.80;72.60;;;;;;5124127;28;20035;-35
2021/10/09 08:46:11;;;;;;;1.58;1.00;;;21.80;72.70;;;;;;5123679;28;20023;-35
2021/10/09 08:48:41;;;;;;;1.17;1.07;;;21.80;72.60;;;;;;5123862;28;20051;-35
2021/10/09 08:51:08;;;;;;;1.40;1.10;;;21.90;72.80;;;;;;5122791;28;20096;-35
2021/10/09 08:53:35;;;;;;;1.10;1.00;;;21.80;72.60;;;;;;5123592;28;20059;-35
2021/10/09 08:56:01;;;;;;;1.17;1.05;;;21.90;72.80;;;;;;5123581;28;20039;-35
2021/10/09 08:58:30;;;;;;;1.20;1.10;;;21.80;72.70;;;;;;5123736;28;20058;-35
2021/10/09 09:03:30;;;;;;;1.33;1.02;;;21.80;72.70;;;;;;5105201;28;20055;-35
2021/10/09 09:06:07;;;;;;;3.50;1.13;;;21.80;72.70;;;;;;5106014;28;20055;-35
2021/10/09 09:08:53;;;;;;;1.10;1.00;;;21.80;72.80;;;;;;5106802;28;20054;-35
2021/10/09 09:36:22;;;;;;;1.00;0.95;;;21.80;72.90;;;;;;4980985;28;20038;-35
2021/10/09 09:41:50;;;;;;;1.50;1.10;;;21.80;73.00;;;;;;4923306;29;20051;-35
2021/10/09 09:44:18;;;;;;;1.13;1.02;;;21.80;73.10;;;;;;4918147;29;20043;-35
2021/10/09 09:47:03;;;;;;;0.90;0.90;;;21.80;73.00;;;;;;4904329;29;20112;-35
2021/10/09 09:49:30;;;;;;;1.20;0.80;;;21.80;73.10;;;;;;4904008;29;20052;-35
2021/10/09 09:51:57;;;;;;;0.70;0.70;;;21.80;73.00;;;;;;4904441;29;20131;-35
2021/10/09 09:54:27;;;;;;;1.52;1.00;;;21.80;73.00;;;;;;4919213;29;20032;-35
2021/10/09 09:56:56;;;;;;;1.58;0.95;;;21.80;73.10;;;;;;4923133;29;20044;-35
2021/10/09 09:59:26;;;;;;;0.90;0.90;;;21.80;73.10;;;;;;4907257;29;20047;-35
2021/10/09 10:01:52;;;;;;;3.63;1.02;;;21.80;73.10;;;;;;4959096;28;20066;-35
2021/10/09 10:04:18;;;;;;;0.90;0.90;;;21.80;73.10;;;;;;5000088;28;20041;-35
2021/10/09 10:06:44;;;;;;;0.93;0.85;;;21.80;73.10;;;;;;4984051;28;20022;-35
2021/10/09 10:09:10;;;;;;;1.40;1.10;;;21.80;73.10;;;;;;4999878;28;20049;-35
2021/10/09 10:11:36;;;;;;;1.13;1.02;;;21.80;73.10;;;;;;4983835;28;20057;-35
2021/10/09 10:14:03;;;;;;;1.30;0.88;;;21.80;73.10;;;;;;4999853;28;20217;-35
2021/10/09 10:16:29;;;;;;;1.55;0.95;;;21.80;73.20;;;;;;4983562;28;20038;-35
2021/10/09 10:18:58;;;;;;;1.80;0.95;;;21.80;73.20;;;;;;5084393;28;20032;-35
2021/10/09 10:21:36;;;;;;;1.02;0.98;;;21.80;73.20;;;;;;5104478;28;20120;-35
2021/10/09 10:24:02;;;;;;;1.00;0.90;;;21.80;73.20;;;;;;5140237;28;20055;-35
2021/10/09 10:26:32;;;;;;;1.10;1.00;;;21.80;73.20;;;;;;5143356;28;20754;-35
2021/10/09 10:28:58;;;;;;;0.90;0.80;;;21.80;73.20;;;;;;5143182;27;20723;-35
2021/10/09 10:31:28;;;;;;;0.90;0.90;;;21.80;73.30;;;;;;5143250;28;20073;-35
2021/10/09 10:34:20;;;;;;;1.10;0.90;;;21.80;73.20;;;;;;5142950;28;20034;-35
2021/10/09 10:36:46;;;;;;;1.08;0.98;;;21.80;73.30;;;;;;5142890;28;20038;-35
2021/10/09 10:39:17;;;;;;;1.07;0.97;;;21.70;73.20;;;;;;5142971;28;20048;-35
2021/10/09 10:42:01;;;;;;;0.88;0.73;;;21.70;73.30;;;;;;5126114;28;20027;-35
2021/10/09 10:44:50;;;;;;;1.23;1.00;;;21.80;73.40;;;;;;5122153;28;20118;-36
2021/10/09 10:47:45;;;;;;;1.00;0.90;;;21.80;73.40;;;;;;5122386;28;20087;-35
2021/10/09 10:50:46;;;;;;;0.80;0.77;;;21.80;73.40;;;;;;5121824;28;20067;-35
2021/10/09 10:53:22;;;;;;;1.23;0.65;;;21.70;73.40;;;;;;5122060;28;20028;-35
2021/10/09 10:56:05;;;;;;;1.90;0.93;;;21.70;73.40;;;;;;5122220;28;20039;-35
2021/10/09 10:58:31;;;;;;;1.30;0.98;;;21.80;73.40;;;;;;5122176;28;20028;-35
2021/10/09 11:01:17;;;;;;;1.25;0.80;;;21.70;73.40;;;;;;5122146;28;20034;-35
2021/10/09 11:03:53;;;;;;;0.80;0.80;;;21.70;73.40;;;;;;5121974;28;20028;-35
2021/10/09 11:06:21;;;;;;;0.90;0.90;;;21.70;73.50;;;;;;5122414;28;20026;-35
2021/10/09 11:08:47;;;;;;;0.77;0.77;;;21.70;73.40;;;;;;5121467;28;20054;-35
2021/10/09 11:11:14;;;;;;;1.13;0.90;;;21.70;73.50;;;;;;5122220;28;20039;-35
2021/10/09 11:13:41;;;;;;;1.10;1.00;;;21.70;73.50;;;;;;5123575;28;20047;-35
2021/10/09 11:16:07;;;;;;;1.00;0.88;;;21.70;73.50;;;;;;5125700;28;20037;-35
2021/10/09 11:18:49;;;;;;;1.50;0.75;;;21.70;73.50;;;;;;5146134;27;20120;-35
2021/10/09 11:21:17;;;;;;;1.05;1.00;;;21.70;73.60;;;;;;5144883;27;20042;-35
2021/10/09 11:23:57;;;;;;;0.98;0.98;;;21.70;73.60;;;;;;5106584;28;20027;-36
2021/10/09 11:26:25;;;;;;;3.03;1.00;;;21.70;73.60;;;;;;5107376;28;20567;-35
2021/10/09 11:29:06;;;;;;;0.98;0.90;;;21.70;73.60;;;;;;5125820;28;20028;-35
2021/10/09 11:31:32;;;;;;;0.90;0.90;;;21.70;73.70;;;;;;5125412;28;20069;-35
2021/10/09 11:34:02;;;;;;;0.90;0.65;;;21.70;73.80;;;;;;5125268;28;20031;-35
2021/10/09 11:36:28;;;;;;;0.90;0.77;;;21.70;73.80;;;;;;5125365;28;20020;-35
2021/10/09 11:39:12;;;;;;;0.98;0.80;;;21.70;73.70;;;;;;5125300;28;20019;-35
2021/10/09 11:41:40;;;;;;;1.00;0.90;;;21.70;73.70;;;;;;5125382;28;20059;-35
2021/10/09 11:44:27;;;;;;;2.05;0.80;;;21.60;73.70;;;;;;5124959;28;20122;-36
2021/10/09 11:47:23;;;;;;;2.05;0.90;;;21.60;73.70;;;;;;5125133;28;20074;-35
2021/10/09 11:55:32;;;;;;;0.88;0.88;;;21.70;73.80;;;;;;5124892;28;20034;-35
2021/10/09 11:57:58;;;;;;;1.00;0.88;;;21.70;73.90;;;;;;5124955;28;20020;-35
2021/10/09 12:00:31;;;;;;;1.67;0.80;;;21.60;73.90;;;;;;5089659;28;20027;-35
2021/10/09 12:03:01;;;;;;;0.80;0.80;;;21.70;73.80;;;;;;5125036;28;20034;-35
2021/10/09 12:05:33;;;;;;;1.70;0.73;;;21.60;73.80;;;;;;5106413;28;20073;-35
2021/10/09 12:08:17;;;;;;;1.20;0.90;;;21.60;73.90;;;;;;5124830;28;20028;-35
2021/10/09 12:11:12;;;;;;;1.20;1.10;;;21.60;73.90;;;;;;5124688;28;20067;-35
2021/10/09 12:13:52;;;;;;;1.08;0.82;;;21.60;73.90;;;;;;5124569;28;20030;-35
2021/10/09 12:16:32;;;;;;;2.00;0.95;;;21.60;73.90;;;;;;5123909;28;20666;-36
2021/10/09 12:19:08;;;;;;;0.70;0.70;;;21.60;73.90;;;;;;5107813;28;20051;-35
2021/10/09 12:21:39;;;;;;;1.67;1.00;;;21.60;73.90;;;;;;5124448;28;20038;-35
2021/10/09 12:24:13;;;;;;;1.17;0.80;;;21.60;74.00;;;;;;5124349;28;20061;-36
2021/10/09 12:26:39;;;;;;;1.77;0.90;;;21.60;74.00;;;;;;5124084;28;20035;-35
2021/10/09 12:29:17;;;;;;;0.80;0.80;;;21.60;74.00;;;;;;5106129;28;20476;-35
2021/10/09 12:31:45;;;;;;;0.90;0.90;;;21.60;74.00;;;;;;5124239;28;20126;-35
2021/10/09 12:34:29;;;;;;;1.00;0.90;;;21.60;74.10;;;;;;5124248;28;20553;-35
2021/10/09 12:37:24;;;;;;;0.90;0.90;;;21.50;74.00;;;;;;5124190;28;20181;-35
2021/10/09 12:40:07;;;;;;;0.70;0.60;;;21.50;74.00;;;;;;5124293;28;20054;-35
2021/10/09 12:42:33;;;;;;;0.80;0.68;;;21.50;74.10;;;;;;5124255;28;20380;-35
2021/10/09 12:44:59;;;;;;;0.88;0.80;;;21.60;74.10;;;;;;5117989;28;20083;-34
2021/10/09 12:47:26;;;;;;;1.02;0.85;;;21.60;74.20;;;;;;5105649;28;20031;-35
2021/10/09 12:49:52;;;;;;;1.35;0.95;;;21.50;74.10;;;;;;5104162;28;20075;-35
2021/10/09 12:52:18;;;;;;;1.55;0.82;;;21.50;74.10;;;;;;5113762;28;20035;-35
2021/10/09 12:54:44;;;;;;;0.90;0.90;;;21.50;74.20;;;;;;5123533;28;20032;-35
2021/10/09 12:57:10;;;;;;;1.17;0.80;;;21.50;74.10;;;;;;5124126;28;20035;-35
2021/10/09 12:59:37;;;;;;;0.80;0.80;;;21.50;74.20;;;;;;5123764;28;20291;-35
2021/10/09 13:02:03;;;;;;;0.90;0.90;;;21.50;74.10;;;;;;5123823;28;20024;-35
2021/10/09 13:04:29;;;;;;;0.90;0.80;;;21.50;74.10;;;;;;5123603;28;20050;-35
2021/10/09 13:06:55;;;;;;;0.88;0.80;;;21.50;74.10;;;;;;5123688;28;20031;-35
2021/10/09 13:09:22;;;;;;;1.10;0.90;;;21.50;74.10;;;;;;5123495;28;20024;-36
2021/10/09 13:11:57;;;;;;;0.60;0.57;;;21.50;74.10;;;;;;5123603;28;20460;-35
2021/10/09 13:14:23;;;;;;;1.05;0.77;;;21.50;74.10;;;;;;5121933;28;20039;-35
2021/10/09 13:16:50;;;;;;;0.70;0.70;;;21.50;74.10;;;;;;5123529;28;20070;-35
2021/10/09 13:19:16;;;;;;;1.38;0.82;;;21.50;74.10;;;;;;5123348;28;20023;-35
2021/10/09 13:21:42;;;;;;;1.13;0.75;;;21.50;74.20;;;;;;5118452;28;20109;-35
2021/10/09 13:24:08;;;;;;;1.23;0.90;;;21.50;74.20;;;;;;5103001;28;20031;-35
2021/10/09 13:26:35;;;;;;;1.30;0.83;;;21.50;74.20;;;;;;5103014;28;20136;-35
2021/10/09 13:29:02;;;;;;;1.00;0.90;;;21.50;74.20;;;;;;5102730;28;20028;-35
2021/10/09 13:31:28;;;;;;;0.93;0.75;;;21.50;74.20;;;;;;5103017;28;20296;-35
2021/10/09 13:33:56;;;;;;;1.13;0.90;;;21.50;74.20;;;;;;5102534;28;20051;-35
2021/10/09 13:36:22;;;;;;;0.80;0.80;;;21.50;74.20;;;;;;5102358;28;20267;-35
2021/10/09 13:38:48;;;;;;;1.17;0.90;;;21.50;74.20;;;;;;5102810;28;20020;-35
2021/10/09 13:41:15;;;;;;;0.88;0.88;;;21.50;74.20;;;;;;5118334;28;20464;-35
2021/10/09 13:43:41;;;;;;;0.90;0.90;;;21.50;74.20;;;;;;5123245;28;20073;-35
2021/10/09 13:46:07;;;;;;;0.93;0.82;;;21.50;74.20;;;;;;5104497;28;20027;-35
2021/10/09 13:48:33;;;;;;;1.15;1.05;;;21.50;74.20;;;;;;5122795;28;20048;-35
2021/10/09 13:50:59;;;;;;;1.52;0.80;;;21.50;74.20;;;;;;5122858;28;20044;-35
2021/10/09 13:53:26;;;;;;;1.60;0.82;;;21.50;74.20;;;;;;5123060;28;20031;-35
2021/10/09 13:55:52;;;;;;;0.80;0.80;;;21.50;74.20;;;;;;5122838;28;20750;-35
2021/10/09 13:58:19;;;;;;;1.10;1.00;;;21.50;74.20;;;;;;5122764;28;20049;-35
2021/10/09 14:00:45;;;;;;;0.93;0.80;;;21.50;74.30;;;;;;5123212;28;20107;-35
2021/10/09 14:03:12;;;;;;;1.20;1.10;;;21.50;74.20;;;;;;5104570;28;20024;-35
2021/10/09 14:05:38;;;;;;;0.98;0.85;;;21.50;74.30;;;;;;5122565;28;20031;-35
2021/10/09 14:08:05;;;;;;;0.77;0.70;;;21.50;74.30;;;;;;5122974;28;20035;-35
2021/10/09 14:10:31;;;;;;;0.80;0.73;;;21.50;74.30;;;;;;5122742;28;20036;-35
2021/10/09 14:12:57;;;;;;;1.37;0.90;;;21.50;74.30;;;;;;5122986;28;20084;-35
2021/10/09 14:15:24;;;;;;;0.70;0.70;;;21.50;74.30;;;;;;5122620;28;20030;-35
2021/10/09 14:17:51;;;;;;;1.33;1.10;;;21.50;74.20;;;;;;5122784;28;20032;-35
2021/10/09 14:20:17;;;;;;;1.23;0.77;;;21.50;74.20;;;;;;5122586;28;20515;-35
2021/10/09 14:22:43;;;;;;;0.80;0.80;;;21.50;74.20;;;;;;5122902;28;20698;-35
2021/10/09 14:25:11;;;;;;;1.85;0.90;;;21.50;74.20;;;;;;5122185;28;20035;-35
2021/10/09 14:27:37;;;;;;;1.23;0.98;;;21.50;74.20;;;;;;5122746;28;20030;-35
2021/10/09 14:30:06;;;;;;;0.80;0.80;;;21.50;74.20;;;;;;5122688;28;20038;-35
2021/10/09 14:32:32;;;;;;;1.52;1.00;;;21.50;74.20;;;;;;5122525;28;20027;-35
2021/10/09 14:34:58;;;;;;;0.80;0.80;;;21.50;74.20;;;;;;5122603;28;20034;-35
2021/10/09 14:37:24;;;;;;;1.10;0.98;;;21.50;74.10;;;;;;5122687;28;20062;-35
2021/10/09 14:39:50;;;;;;;1.30;1.02;;;21.60;74.10;;;;;;5122525;28;20020;-35
2021/10/09 14:42:17;;;;;;;0.90;0.80;;;21.60;74.90;;;;;;5122586;28;20091;-36